Time;durP1;ratioP1;P1;durP2;ratioP2;P2;SDS_P1;SDS_P2;PMS_P1;PMS_P2;Temp;Humidity;BMP_temperature;BMP_pressure;BME280_temperature;BME280_humidity;BME280_pressure;Samples;Min_cycle;Max_cycle;Signal;HPM_P1;HPM_P2
2022/09/01 06:08:04;;;;;;;9.98;2.85;;;;;;;19.77;73.20;99991.33;1731648;81;21617;-51
2022/09/01 06:10:34;;;;;;;11.70;3.27;;;;;;;19.83;72.99;99978.68;1713291;82;20968;-45
2022/09/01 06:13:01;;;;;;;7.78;3.60;;;;;;;19.92;72.63;99978.73;1695914;83;21049;-46
2022/09/01 06:15:29;;;;;;;4.75;2.33;;;;;;;20.05;72.26;99975.93;1701577;83;21005;-51
2022/09/01 06:17:57;;;;;;;6.85;2.83;;;;;;;20.18;71.34;99983.78;1696901;82;21147;-51
2022/09/01 06:20:25;;;;;;;5.35;2.85;;;;;;;20.29;70.37;99990.38;1733894;81;20950;-51
2022/09/01 06:22:51;;;;;;;8.03;2.12;;;;;;;20.39;69.77;99989.05;1735639;81;21082;-51
2022/09/01 06:25:19;;;;;;;2.90;2.12;;;;;;;20.50;69.30;99989.92;1730386;81;20989;-51
2022/09/01 06:27:47;;;;;;;6.35;3.12;;;;;;;20.60;68.36;99984.12;1686447;83;21120;-50
2022/09/01 06:30:19;;;;;;;6.12;2.58;;;;;;;20.71;67.17;99983.16;1733687;81;21750;-51
2022/09/01 06:32:48;;;;;;;2.17;1.80;;;;;;;20.81;66.49;99982.23;1696044;83;22060;-51
2022/09/01 06:35:15;;;;;;;2.87;2.15;;;;;;;20.88;64.82;99989.02;1728665;81;21614;-51
2022/09/01 06:37:45;;;;;;;2.98;1.92;;;;;;;20.89;64.65;99984.09;1736628;81;21038;-44
2022/09/01 06:40:17;;;;;;;5.10;2.05;;;;;;;20.93;63.44;99980.80;1732601;81;21015;-44
2022/09/01 06:42:49;;;;;;;5.95;1.50;;;;;;;20.98;61.84;99986.76;1737368;81;21027;-45
2022/09/01 06:45:19;;;;;;;2.67;1.67;;;;;;;20.98;61.19;99986.29;1740456;81;21348;-50
2022/09/01 06:47:46;;;;;;;3.37;1.85;;;;;;;21.03;61.09;99985.22;1691978;83;21068;-50
2022/09/01 06:50:15;;;;;;;2.50;1.45;;;;;;;21.11;59.74;99992.38;1736126;81;21930;-44
2022/09/01 06:52:42;;;;;;;6.58;1.80;;;;;;;21.11;57.89;99991.91;1663973;84;21442;-49
2022/09/01 06:55:10;;;;;;;2.72;1.72;;;;;;;21.13;58.62;99993.16;1733281;81;21028;-44
2022/09/01 06:57:39;;;;;;;2.45;1.87;;;;;;;21.26;58.59;99993.80;1733373;81;21122;-43
2022/09/01 07:00:20;;;;;;;2.67;1.57;;;;;;;21.38;58.03;99992.38;1683856;83;20960;-49
2022/09/01 07:02:41;;;;;;;1.75;1.27;;;;;;;21.50;57.53;99999.75;1693646;84;21454;-49
2022/09/01 07:05:11;;;;;;;2.42;1.70;;;;;;;21.58;57.21;100001.19;1726848;81;20977;-43
2022/09/01 07:07:38;;;;;;;5.12;1.40;;;;;;;21.62;57.05;99995.61;1736191;81;21688;-43
2022/09/01 07:10:25;;;;;;;1.98;1.40;;;;;;;21.73;56.10;100000.40;1737269;81;21522;-44
2022/09/01 07:13:00;;;;;;;3.22;1.75;;;;;;;21.84;55.85;100006.52;1735075;81;21043;-48
2022/09/01 07:15:31;;;;;;;2.58;1.80;;;;;;;21.92;55.79;99999.02;1742502;81;20975;-48
2022/09/01 07:17:57;;;;;;;4.95;1.87;;;;;;;22.01;55.77;99994.05;1741399;81;21047;-43
2022/09/01 07:20:27;;;;;;;2.45;1.50;;;;;;;22.11;54.70;99993.15;1747944;81;21435;-48
2022/09/01 07:22:55;;;;;;;4.10;1.80;;;;;;;22.12;54.87;99994.01;1738434;81;21054;-48
2022/09/01 07:25:22;;;;;;;6.50;1.60;;;;;;;22.04;52.57;100003.23;1699212;82;21532;-47
2022/09/01 07:28:00;;;;;;;3.08;2.17;;;;;;;21.96;54.16;100003.22;1683059;83;21100;-47
2022/09/01 07:30:27;;;;;;;2.90;1.77;;;;;;;21.95;52.99;99999.70;1706399;83;21007;-47
2022/09/01 07:32:56;;;;;;;2.95;2.10;;;;;;;21.99;51.97;100000.41;1691744;83;21072;-47
2022/09/01 07:35:24;;;;;;;2.70;1.82;;;;;;;21.92;51.63;100000.35;1689798;84;20993;-47
2022/09/01 07:37:51;;;;;;;7.75;2.27;;;;;;;21.77;51.40;100000.64;1688220;85;21667;-47
2022/09/01 07:40:21;;;;;;;5.87;2.20;;;;;;;21.66;52.13;99995.00;1666760;83;20996;-47
2022/09/01 07:43:19;;;;;;;3.65;2.33;;;;;;;21.60;52.13;100001.49;1687288;83;21107;-47
2022/09/01 07:46:04;;;;;;;2.67;2.20;;;;;;;21.51;52.47;99993.52;1677283;83;21564;-47
2022/09/01 07:48:31;;;;;;;2.87;1.90;;;;;;;21.49;52.70;99994.03;1683253;83;21045;-43
2022/09/01 07:50:58;;;;;;;4.40;2.40;;;;;;;21.63;52.80;99990.70;1674346;85;21033;-47
2022/09/01 07:53:31;;;;;;;3.42;1.80;;;;;;;21.81;52.81;99983.59;1723622;81;21086;-43
2022/09/01 07:56:06;;;;;;;2.65;2.27;;;;;;;22.04;51.92;99981.06;1624084;84;21539;-42
2022/09/01 07:58:33;;;;;;;3.25;2.15;;;;;;;22.24;50.92;99979.56;1674181;84;21589;-47
2022/09/01 08:01:07;;;;;;;3.08;2.12;;;;;;;22.36;50.12;99987.84;1681225;84;21909;-47
2022/09/01 08:03:35;;;;;;;6.37;2.70;;;;;;;22.34;48.69;99980.42;1655283;84;21046;-47
2022/09/01 08:06:10;;;;;;;8.53;2.50;;;;;;;22.41;50.03;99984.47;1679629;85;21013;-47
2022/09/01 08:08:39;;;;;;;4.42;2.50;;;;;;;22.57;49.76;99972.90;1672603;84;21034;-47
2022/09/01 08:11:07;;;;;;;6.83;2.25;;;;;;;22.69;47.76;99977.17;1679193;85;21006;-43
2022/09/01 08:13:36;;;;;;;2.98;1.95;;;;;;;22.65;47.83;99975.14;1652987;85;21136;-43
2022/09/01 08:16:06;;;;;;;4.25;1.92;;;;;;;22.50;48.63;99978.19;1667257;85;21065;-43
2022/09/01 08:18:34;;;;;;;4.17;2.30;;;;;;;22.41;48.91;99972.00;1678696;84;21420;-47
2022/09/01 08:21:10;;;;;;;5.65;2.17;;;;;;;22.39;49.40;99969.91;1677202;84;21009;-48
2022/09/01 08:23:38;;;;;;;4.03;1.32;;;;;;;22.51;49.81;99963.05;1670215;84;21081;-43
2022/09/01 08:26:12;;;;;;;8.73;1.90;;;;;;;22.80;49.29;99964.11;1659067;85;21454;-43
2022/09/01 08:28:39;;;;;;;2.22;1.60;;;;;;;23.07;48.91;99958.56;1685499;82;21019;-47
2022/09/01 08:31:11;;;;;;;2.22;2.00;;;;;;;23.36;47.38;99947.55;1679079;84;21001;-47
2022/09/01 08:33:38;;;;;;;;;;;;;;;23.42;45.81;99952.15;1744691;80;21018;-48
2022/09/01 08:36:07;;;;;;;6.55;2.25;;;;;;;23.23;46.18;99957.22;1743881;81;20105;-47
2022/09/01 08:38:34;;;;;;;4.00;1.90;;;;;;;23.03;46.32;99955.70;1736253;81;21610;-47
2022/09/01 08:41:02;;;;;;;4.20;1.72;;;;;;;22.84;46.14;99956.30;1693375;83;21013;-47
2022/09/01 08:44:11;;;;;;;4.70;1.55;;;;;;;22.74;46.51;99962.64;1675625;84;21127;-47
2022/09/01 08:46:40;;;;;;;5.72;1.57;;;;;;;22.71;45.74;99962.80;1711326;81;20972;-48
2022/09/01 08:49:18;;;;;;;9.33;1.50;;;;;;;22.69;46.07;99958.03;1693830;83;20987;-47
2022/09/01 08:52:32;;;;;;;2.80;1.45;;;;;;;22.80;47.47;99956.11;1708268;83;21705;-47
2022/09/01 08:55:26;;;;;;;4.15;1.82;;;;;;;23.03;46.25;99960.19;1655584;83;20998;-47
2022/09/01 08:57:54;;;;;;;4.12;1.80;;;;;;;23.24;44.58;99954.94;1738731;81;21115;-47
2022/09/01 09:00:27;;;;;;;3.50;1.75;;;;;;;23.38;44.80;99955.97;1628651;85;21085;-44
2022/09/01 09:03:22;;;;;;;1.55;1.25;;;;;;;23.44;45.37;99947.60;1735290;81;21040;-43
2022/09/01 09:06:14;;;;;;;3.42;1.42;;;;;;;23.43;44.90;99953.89;1736017;81;21497;-48
2022/09/01 09:09:04;;;;;;;4.22;1.60;;;;;;;23.29;44.76;99952.87;1731759;82;21557;-45
2022/09/01 09:11:57;;;;;;;1.98;1.50;;;;;;;23.17;45.32;99952.24;1728176;82;21790;-43
2022/09/01 09:14:38;;;;;;;2.52;1.30;;;;;;;23.13;44.63;99952.02;1729318;82;21502;-41
2022/09/01 09:17:06;;;;;;;3.22;1.80;;;;;;;23.15;45.28;99950.63;1733965;81;21024;-47
2022/09/01 09:19:38;;;;;;;2.40;1.20;;;;;;;23.22;45.20;99951.51;1697663;83;21041;-47
2022/09/01 09:22:09;;;;;;;3.02;1.40;;;;;;;23.32;46.10;99954.52;1675311;84;21057;-42
2022/09/01 09:25:08;;;;;;;2.25;1.20;;;;;;;23.58;45.41;99952.97;1719467;81;21020;-47
2022/09/01 09:27:41;;;;;;;2.70;1.47;;;;;;;24.14;43.15;99958.09;1722613;82;21060;-47
2022/09/01 09:30:22;;;;;;;3.10;1.27;;;;;;;24.14;43.15;99958.09;1688396;84;21000;-46
2022/09/01 09:33:03;;;;;;;1.67;1.42;;;;;;;24.12;41.51;99957.30;1688707;83;21101;-47
2022/09/01 09:35:41;;;;;;;2.30;1.45;;;;;;;23.90;41.06;99953.77;1697053;84;21040;-47
2022/09/01 09:38:21;;;;;;;2.60;1.27;;;;;;;23.65;41.13;99952.16;1688516;83;21080;-47
2022/09/01 09:41:01;;;;;;;1.55;1.05;;;;;;;23.44;42.08;99940.45;1679284;85;21495;-47
2022/09/01 09:43:29;;;;;;;1.32;1.22;;;;;;;23.44;42.08;99940.45;1636239;85;21065;-44
2022/09/01 09:46:33;;;;;;;1.77;1.12;;;;;;;23.57;42.06;99937.44;1682398;85;21452;-43
2022/09/01 09:49:24;;;;;;;1.25;1.00;;;;;;;23.98;42.53;99948.80;1663149;84;21044;-43
2022/09/01 09:52:09;;;;;;;3.12;1.22;;;;;;;23.98;42.53;99948.80;1706311;83;21013;-48
2022/09/01 09:54:39;;;;;;;1.30;1.12;;;;;;;23.86;41.23;99947.73;1688429;84;21104;-44
2022/09/01 09:57:15;;;;;;;3.98;1.30;;;;;;;23.62;42.44;99943.88;1689033;83;21058;-44
2022/09/01 10:00:02;;;;;;;2.08;1.30;;;;;;;23.42;44.34;99951.67;1713466;84;21072;-43
2022/09/01 10:02:42;;;;;;;9.30;1.67;;;;;;;23.26;43.47;99942.86;1722540;82;21573;-47
2022/09/01 10:05:35;;;;;;;1.52;1.37;;;;;;;23.05;43.77;99942.27;1688772;84;21356;-42
2022/09/01 10:08:07;;;;;;;5.35;1.85;;;;;;;23.05;43.77;99942.27;1708269;82;21143;-43
2022/09/01 10:10:46;;;;;;;2.12;1.37;;;;;;;23.07;44.47;99951.89;1688728;84;20977;-43
2022/09/01 10:13:18;;;;;;;2.52;1.45;;;;;;;23.14;43.93;99943.58;1688637;83;21082;-43
2022/09/01 10:15:59;;;;;;;1.60;1.50;;;;;;;23.14;44.52;99951.10;1694229;85;21010;-47
2022/09/01 10:18:34;;;;;;;1.62;1.00;;;;;;;23.24;42.95;99945.59;1693706;83;21085;-48
2022/09/01 10:21:10;;;;;;;5.33;1.52;;;;;;;23.38;42.78;99944.81;1717295;82;21044;-43
